createdAt,value
2018-06-30T00:01:45.917Z,74.80
2018-06-30T00:04:14.886Z,73.90
2018-06-30T00:09:12.386Z,73.40
2018-06-30T00:11:41.325Z,73.60
2018-06-30T00:14:10.300Z,74.30
2018-06-30T00:16:39.274Z,75.00
2018-06-30T00:19:08.242Z,75.40
2018-06-30T00:21:37.217Z,75.90
2018-06-30T00:24:06.385Z,76.30
2018-06-30T00:26:35.922Z,76.10
2018-06-30T00:29:05.093Z,75.70
2018-06-30T00:31:34.049Z,75.60
2018-06-30T00:34:03.008Z,75.60
2018-06-30T00:36:31.986Z,75.60
2018-06-30T00:39:00.957Z,75.50
2018-06-30T00:41:29.933Z,75.70
2018-06-30T00:43:58.858Z,75.60
2018-06-30T00:46:27.802Z,75.80
2018-06-30T00:48:57.309Z,75.90
2018-06-30T00:51:26.283Z,76.10
2018-06-30T00:53:55.238Z,76.40
2018-06-30T00:56:24.213Z,76.70
2018-06-30T00:58:53.207Z,76.80
2018-06-30T01:01:22.249Z,77.00
2018-06-30T01:03:51.264Z,77.20
2018-06-30T01:06:20.257Z,77.30
2018-06-30T01:08:49.241Z,77.20
2018-06-30T01:11:18.966Z,77.30
2018-06-30T01:13:47.949Z,77.30
2018-06-30T01:16:16.953Z,77.30
2018-06-30T01:18:45.874Z,77.00
2018-06-30T01:21:14.845Z,76.90
2018-06-30T01:23:43.762Z,76.80
2018-06-30T01:26:14.019Z,76.80
2018-06-30T01:28:42.982Z,76.90
2018-06-30T01:31:11.942Z,77.10
2018-06-30T01:33:40.872Z,77.30
2018-06-30T01:36:09.836Z,76.70
2018-06-30T01:38:38.786Z,76.20
2018-06-30T01:41:07.768Z,76.00
2018-06-30T01:43:36.697Z,75.80
2018-06-30T01:46:05.667Z,75.50
2018-06-30T01:48:34.658Z,75.50
2018-06-30T01:51:05.221Z,75.80
2018-06-30T01:53:34.210Z,76.30
2018-06-30T01:56:03.175Z,76.80
2018-06-30T01:58:32.113Z,77.00
2018-06-30T02:01:01.065Z,77.30
2018-06-30T02:03:30.021Z,77.30
2018-06-30T02:05:59.029Z,77.30
2018-06-30T02:08:27.953Z,77.40
2018-06-30T02:10:56.943Z,76.70
2018-06-30T02:13:25.886Z,76.10
2018-06-30T02:18:23.307Z,74.90
2018-06-30T02:20:52.264Z,74.90
2018-06-30T02:25:49.689Z,75.50
2018-06-30T02:28:18.645Z,75.70
2018-06-30T02:30:47.631Z,75.90
2018-06-30T02:33:19.341Z,76.20
2018-06-30T02:35:48.361Z,76.60
2018-06-30T02:38:17.289Z,76.80
2018-06-30T02:40:46.334Z,77.00
2018-06-30T02:43:15.282Z,76.90
2018-06-30T02:45:44.225Z,77.10
2018-06-30T02:48:13.149Z,77.40
2018-06-30T03:00:44.204Z,78.00
2018-06-30T03:03:13.145Z,78.20
2018-06-30T03:05:42.093Z,78.20
2018-06-30T03:08:11.035Z,78.20
2018-06-30T03:10:39.965Z,78.40
2018-06-30T03:13:08.910Z,78.10
2018-06-30T03:15:37.878Z,78.00
2018-06-30T03:18:07.036Z,78.00
2018-06-30T03:20:35.998Z,77.80
2018-06-30T03:23:05.005Z,78.10
2018-06-30T03:25:33.936Z,78.10
2018-06-30T03:28:02.894Z,78.00
2018-06-30T03:30:31.812Z,78.10
2018-06-30T03:33:00.749Z,78.10
2018-06-30T03:35:29.674Z,77.90
2018-06-30T03:37:58.602Z,77.90
2018-06-30T03:40:27.529Z,77.90
2018-06-30T03:42:56.580Z,77.90
2018-06-30T03:45:25.559Z,78.80
2018-06-30T03:47:54.477Z,77.70
2018-06-30T03:50:23.469Z,77.50
2018-06-30T03:52:52.397Z,77.20
2018-06-30T03:55:21.369Z,76.70
2018-06-30T04:00:18.780Z,75.90
2018-06-30T04:02:47.733Z,75.80
2018-06-30T04:05:16.682Z,76.30
2018-06-30T04:07:45.625Z,77.00
2018-06-30T04:10:14.568Z,77.60
2018-06-30T04:12:43.573Z,78.10
2018-06-30T04:15:12.594Z,78.70
2018-06-30T04:17:41.570Z,78.60
2018-06-30T04:20:10.522Z,79.00
2018-06-30T04:22:39.453Z,79.00
2018-06-30T04:25:08.401Z,79.40
2018-06-30T04:27:37.358Z,79.50
2018-06-30T04:30:06.453Z,79.60
2018-06-30T04:32:35.409Z,79.60
2018-06-30T04:35:04.535Z,79.40
2018-06-30T04:37:33.460Z,79.50
2018-06-30T04:40:02.417Z,79.30
2018-06-30T04:42:31.367Z,79.40
2018-06-30T04:45:00.322Z,79.70
2018-06-30T04:47:29.793Z,79.70
2018-06-30T04:49:59.077Z,79.80
2018-06-30T04:52:28.022Z,80.00
2018-06-30T04:54:56.968Z,80.10
2018-06-30T04:57:25.904Z,80.20
2018-06-30T04:59:54.821Z,80.20
2018-06-30T05:02:23.768Z,80.40
2018-06-30T05:04:52.678Z,80.60
2018-06-30T05:07:21.585Z,80.40
2018-06-30T05:09:50.513Z,79.90
2018-06-30T05:12:19.509Z,79.90
2018-06-30T05:14:48.430Z,80.10
2018-06-30T05:17:17.393Z,80.40
2018-06-30T05:19:46.308Z,80.60
2018-06-30T05:22:15.255Z,81.00
2018-06-30T05:24:44.221Z,81.30
2018-06-30T05:27:13.151Z,81.70
2018-06-30T05:29:42.069Z,81.80
2018-06-30T05:32:10.996Z,82.00
2018-06-30T05:34:39.956Z,82.10
2018-06-30T05:37:08.900Z,82.30
2018-06-30T05:39:37.810Z,82.20
2018-06-30T05:42:06.806Z,82.10
2018-06-30T05:44:35.805Z,81.90
2018-06-30T05:47:04.839Z,82.20
2018-06-30T05:49:33.757Z,82.40
2018-06-30T05:52:02.741Z,82.30
2018-06-30T05:54:31.755Z,82.80
2018-06-30T05:57:00.732Z,83.20
2018-06-30T05:59:31.213Z,82.80
2018-06-30T06:02:00.169Z,81.60
2018-06-30T06:04:29.149Z,80.30
2018-06-30T06:06:58.065Z,78.90
2018-06-30T06:09:27.002Z,75.80
2018-06-30T06:11:55.921Z,73.30
2018-06-30T06:14:24.897Z,71.70
2018-06-30T06:16:53.853Z,69.70
2018-06-30T06:19:22.905Z,69.00
2018-06-30T06:21:51.925Z,66.20
2018-06-30T06:24:20.910Z,64.60
2018-06-30T06:26:49.859Z,63.30
2018-06-30T06:29:18.793Z,61.70
2018-06-30T06:31:47.757Z,59.70
2018-06-30T06:34:16.688Z,58.50
2018-06-30T06:36:45.612Z,57.80
2018-06-30T06:39:14.520Z,56.80
2018-06-30T06:41:43.472Z,55.40
2018-06-30T06:44:12.365Z,55.00
2018-06-30T06:46:41.265Z,55.00
2018-06-30T06:49:10.165Z,54.90
2018-06-30T06:51:39.069Z,53.60
2018-06-30T06:54:07.972Z,52.90
2018-06-30T06:56:36.922Z,52.20
2018-06-30T06:59:05.921Z,52.40
2018-06-30T07:01:37.147Z,51.60
2018-06-30T07:04:06.128Z,51.20
2018-06-30T07:06:35.029Z,50.80
2018-06-30T07:11:32.657Z,51.00
2018-06-30T07:14:01.557Z,50.60
2018-06-30T07:16:30.470Z,50.70
2018-06-30T07:18:59.716Z,50.30
2018-06-30T07:21:28.655Z,50.30
2018-06-30T07:23:58.370Z,50.50
2018-06-30T07:26:27.309Z,50.40
2018-06-30T07:28:56.253Z,49.00
2018-06-30T07:31:25.198Z,49.10
2018-06-30T07:33:54.153Z,48.90
2018-06-30T07:36:23.082Z,48.70
2018-06-30T07:38:52.417Z,48.00
2018-06-30T07:41:21.382Z,48.30
2018-06-30T07:43:50.469Z,48.20
2018-06-30T07:46:19.421Z,48.50
2018-06-30T07:48:48.325Z,48.20
2018-06-30T07:51:17.261Z,47.20
2018-06-30T07:53:46.230Z,48.10
2018-06-30T07:56:15.195Z,46.80
2018-06-30T08:01:12.712Z,46.90
2018-06-30T08:03:41.657Z,46.60
2018-06-30T08:06:10.580Z,47.70
2018-06-30T08:08:40.689Z,47.50
2018-06-30T08:11:09.606Z,46.80
2018-06-30T08:13:38.588Z,47.00
2018-06-30T08:16:07.645Z,46.70
2018-06-30T08:18:36.565Z,46.40
2018-06-30T08:21:05.586Z,46.20
2018-06-30T08:23:34.548Z,45.70
2018-06-30T08:26:03.613Z,45.80
2018-06-30T08:28:32.628Z,45.60
2018-06-30T08:31:01.590Z,45.00
2018-06-30T08:33:30.569Z,44.10
2018-06-30T08:35:59.545Z,43.20
2018-06-30T08:38:28.516Z,42.70
2018-06-30T08:40:57.481Z,41.60
2018-06-30T08:43:26.422Z,40.60
2018-06-30T08:45:56.980Z,40.70
2018-06-30T08:48:26.000Z,40.30
2018-06-30T08:50:54.968Z,40.90
2018-06-30T08:53:23.962Z,42.00
2018-06-30T08:55:54.464Z,42.10
2018-06-30T08:58:24.212Z,40.80
2018-06-30T09:00:53.778Z,41.20
2018-06-30T09:03:22.769Z,41.30
2018-06-30T09:05:51.689Z,41.30
2018-06-30T09:08:20.617Z,41.50
2018-06-30T09:13:18.109Z,40.80
2018-06-30T09:15:47.017Z,42.00
2018-06-30T09:18:15.977Z,42.60
2018-06-30T09:20:44.941Z,41.70
2018-06-30T09:23:13.909Z,42.40
2018-06-30T09:25:42.861Z,42.30
2018-06-30T09:28:11.845Z,42.10
2018-06-30T09:30:40.873Z,42.50
2018-06-30T09:33:09.787Z,42.20
2018-06-30T09:35:38.720Z,40.90
2018-06-30T09:38:07.671Z,40.90
2018-06-30T09:40:36.615Z,39.50
2018-06-30T09:43:05.608Z,39.20
2018-06-30T09:45:34.537Z,39.90
2018-06-30T09:48:03.626Z,39.60
2018-06-30T09:50:32.585Z,38.90
2018-06-30T09:53:01.585Z,38.80
2018-06-30T09:55:30.540Z,37.50
2018-06-30T10:00:33.432Z,35.70
2018-06-30T10:03:02.507Z,36.80
2018-06-30T10:05:31.449Z,35.90
2018-06-30T10:08:00.386Z,35.20
2018-06-30T10:10:29.302Z,35.70
2018-06-30T10:12:58.232Z,35.40
2018-06-30T10:15:27.806Z,35.20
2018-06-30T10:17:56.908Z,34.50
2018-06-30T10:20:25.881Z,35.00
2018-06-30T10:22:54.872Z,35.30
2018-06-30T10:25:23.800Z,34.30
2018-06-30T10:27:52.759Z,35.00
2018-06-30T10:30:21.711Z,36.20
2018-06-30T10:32:50.747Z,35.40
2018-06-30T10:35:19.678Z,34.60
2018-06-30T10:37:48.598Z,33.70
2018-06-30T10:40:17.520Z,33.30
2018-06-30T10:42:46.443Z,33.40
2018-06-30T10:45:15.494Z,33.20
2018-06-30T10:47:45.473Z,31.80
2018-06-30T10:50:14.693Z,32.20
2018-06-30T10:52:43.680Z,30.60
2018-06-30T10:55:14.949Z,30.00
2018-06-30T10:57:45.588Z,29.20
2018-06-30T11:00:14.885Z,29.70
2018-06-30T11:02:43.889Z,30.00
2018-06-30T11:05:12.915Z,31.70
2018-06-30T11:07:42.562Z,30.70
2018-06-30T11:10:11.617Z,30.40
2018-06-30T11:12:40.746Z,30.30
2018-06-30T11:15:09.806Z,29.50
2018-06-30T11:17:38.811Z,29.80
2018-06-30T11:20:07.912Z,28.90
2018-06-30T11:22:36.865Z,28.80
2018-06-30T11:25:06.444Z,29.60
2018-06-30T11:27:35.449Z,30.40
2018-06-30T11:30:05.163Z,30.30
2018-06-30T11:32:34.536Z,29.40
2018-06-30T11:35:03.552Z,29.40
2018-06-30T11:37:32.717Z,29.90
2018-06-30T11:40:01.631Z,30.90
2018-06-30T11:42:30.566Z,30.60
2018-06-30T11:44:59.493Z,30.80
2018-06-30T11:47:28.434Z,30.00
2018-06-30T11:49:57.340Z,31.60
2018-06-30T11:52:26.279Z,32.30
2018-06-30T11:54:55.569Z,31.40
2018-06-30T11:57:24.526Z,31.20
2018-06-30T11:59:53.464Z,31.50
2018-06-30T12:02:22.424Z,31.70
2018-06-30T12:04:51.333Z,31.40
2018-06-30T12:07:20.241Z,31.40
2018-06-30T12:09:49.213Z,31.50
2018-06-30T12:12:18.169Z,31.20
2018-06-30T12:14:47.090Z,30.70
2018-06-30T12:17:16.001Z,30.40
2018-06-30T12:19:44.976Z,30.00
2018-06-30T12:22:13.884Z,30.40
2018-06-30T12:24:42.861Z,30.00
2018-06-30T12:27:11.801Z,30.00
2018-06-30T12:29:40.719Z,29.90
2018-06-30T12:32:09.652Z,29.80
2018-06-30T12:34:38.609Z,29.40
2018-06-30T12:37:07.776Z,29.60
2018-06-30T12:39:40.168Z,29.20
2018-06-30T12:42:09.320Z,29.50
2018-06-30T12:44:38.263Z,29.50
2018-06-30T12:47:07.701Z,28.90
2018-06-30T12:49:37.970Z,28.20
2018-06-30T12:52:07.998Z,28.10
2018-06-30T12:54:37.128Z,27.70
2018-06-30T12:57:06.029Z,28.10
2018-06-30T12:59:36.376Z,27.60
2018-06-30T13:02:05.424Z,27.20
2018-06-30T13:04:34.441Z,27.50
2018-06-30T13:07:03.613Z,27.10
2018-06-30T13:09:32.746Z,26.70
2018-06-30T13:12:01.730Z,25.80
2018-06-30T13:14:30.685Z,26.40
2018-06-30T13:17:00.150Z,26.40
2018-06-30T13:19:29.721Z,26.30
2018-06-30T13:21:58.751Z,26.20
2018-06-30T13:24:27.710Z,26.50
2018-06-30T13:26:56.647Z,26.60
2018-06-30T13:29:26.118Z,26.80
2018-06-30T13:31:55.110Z,26.20
2018-06-30T13:34:24.022Z,26.20
2018-06-30T13:39:21.465Z,26.20
2018-06-30T13:41:50.381Z,26.40
2018-06-30T13:44:19.282Z,26.40
2018-06-30T13:46:48.246Z,25.40
2018-06-30T13:49:17.206Z,26.10
2018-06-30T13:51:46.125Z,26.30
2018-06-30T13:54:15.033Z,26.90
2018-06-30T13:56:43.999Z,26.90
2018-06-30T13:59:12.949Z,26.10
2018-06-30T14:01:41.918Z,26.20
2018-06-30T14:04:10.881Z,26.30
2018-06-30T14:06:39.790Z,26.10
2018-06-30T14:09:10.418Z,26.20
2018-06-30T14:11:39.380Z,26.70
2018-06-30T14:14:08.904Z,27.00
2018-06-30T14:16:37.860Z,26.80
2018-06-30T14:19:06.789Z,26.60
2018-06-30T14:21:35.725Z,26.60
2018-06-30T14:24:04.714Z,26.10
2018-06-30T14:26:33.636Z,26.40
2018-06-30T14:29:02.602Z,26.50
2018-06-30T14:31:31.553Z,26.60
2018-06-30T14:34:00.604Z,26.20
2018-06-30T14:36:29.541Z,26.30
2018-06-30T14:38:58.472Z,26.00
2018-06-30T14:41:28.237Z,26.50
2018-06-30T14:43:57.663Z,26.50
2018-06-30T14:46:26.589Z,26.60
2018-06-30T14:48:55.510Z,26.50
2018-06-30T14:51:24.448Z,26.70
2018-06-30T14:53:53.352Z,26.60
2018-06-30T14:56:22.253Z,27.40
2018-06-30T14:58:51.153Z,27.30
2018-06-30T15:01:20.081Z,27.30
2018-06-30T15:03:48.970Z,27.00
2018-06-30T15:06:17.984Z,27.70
2018-06-30T15:08:46.928Z,27.80
2018-06-30T15:11:15.861Z,27.60
2018-06-30T15:13:44.914Z,27.10
2018-06-30T15:16:14.051Z,27.30
2018-06-30T15:18:43.460Z,27.10
2018-06-30T15:21:12.615Z,27.20
2018-06-30T15:23:41.529Z,27.20
2018-06-30T15:26:13.016Z,27.60
2018-06-30T15:28:42.096Z,27.70
2018-06-30T15:31:11.265Z,27.50
2018-06-30T15:33:40.165Z,27.90
2018-06-30T15:36:09.169Z,27.90
2018-06-30T15:38:38.081Z,28.00
2018-06-30T15:41:08.678Z,28.00
2018-06-30T15:43:40.603Z,28.30
2018-06-30T15:46:19.643Z,28.40
2018-06-30T15:48:48.646Z,28.50
2018-06-30T15:51:17.596Z,27.80
2018-06-30T15:53:46.513Z,28.40
2018-06-30T15:56:15.452Z,29.10
2018-06-30T15:58:44.384Z,29.10
2018-06-30T16:01:16.353Z,29.30
2018-06-30T16:03:45.381Z,28.80
2018-06-30T16:06:14.346Z,28.80
2018-06-30T16:08:43.364Z,28.90
2018-06-30T16:11:12.257Z,28.90
2018-06-30T16:18:41.121Z,28.80
2018-06-30T16:21:10.031Z,28.40
2018-06-30T16:23:38.989Z,28.80
2018-06-30T16:26:24.790Z,28.80
2018-06-30T16:29:01.224Z,29.50
2018-06-30T16:31:35.967Z,29.00
2018-06-30T16:34:05.013Z,28.80
2018-06-30T16:36:35.569Z,29.00
2018-06-30T16:39:06.505Z,28.90
2018-06-30T16:41:35.913Z,30.00
2018-06-30T16:44:05.458Z,29.60
2018-06-30T16:46:35.105Z,29.50
2018-06-30T16:49:04.220Z,29.40
2018-06-30T16:51:33.775Z,29.90
2018-06-30T16:54:02.690Z,30.00
2018-06-30T16:56:31.636Z,29.10
2018-06-30T16:59:00.531Z,29.50
2018-06-30T17:01:29.424Z,29.40
2018-06-30T17:03:58.604Z,29.80
2018-06-30T17:06:27.503Z,30.40
2018-06-30T17:08:56.501Z,30.60
2018-06-30T17:11:25.484Z,31.10
2018-06-30T17:13:54.660Z,31.60
2018-06-30T17:16:23.573Z,30.70
2018-06-30T17:18:52.445Z,30.80
2018-06-30T17:21:21.392Z,31.00
2018-06-30T17:23:50.972Z,31.10
2018-06-30T17:26:19.936Z,32.20
2018-06-30T17:28:49.289Z,32.50
2018-06-30T17:31:18.247Z,32.80
2018-06-30T17:33:47.131Z,32.70
2018-06-30T17:36:16.030Z,32.90
2018-06-30T17:38:44.944Z,34.00
2018-06-30T17:41:13.877Z,33.10
2018-06-30T17:43:45.352Z,33.30
2018-06-30T17:46:14.298Z,33.30
2018-06-30T17:48:43.196Z,33.60
2018-06-30T17:51:12.197Z,34.40
2018-06-30T17:53:41.093Z,34.40
2018-06-30T17:56:10.084Z,34.30
2018-06-30T17:58:39.048Z,34.10
2018-06-30T18:03:36.481Z,34.60
2018-06-30T18:06:06.268Z,34.80
2018-06-30T18:08:35.193Z,34.90
2018-06-30T18:11:04.205Z,35.00
2018-06-30T18:13:33.100Z,35.30
2018-06-30T18:16:02.409Z,35.70
2018-06-30T18:18:31.343Z,36.10
2018-06-30T18:21:00.338Z,36.60
2018-06-30T18:23:29.251Z,37.00
2018-06-30T18:25:58.208Z,37.30
2018-06-30T18:28:27.118Z,37.60
2018-06-30T18:30:56.019Z,37.80
2018-06-30T18:33:24.922Z,37.80
2018-06-30T18:35:53.836Z,38.00
2018-06-30T18:38:22.753Z,38.20
2018-06-30T18:40:51.726Z,38.70
2018-06-30T18:43:20.685Z,39.10
2018-06-30T18:45:49.715Z,39.30
2018-06-30T18:48:18.838Z,39.60
2018-06-30T18:50:47.761Z,39.80
2018-06-30T18:53:16.691Z,39.90
2018-06-30T18:55:46.568Z,40.00
2018-06-30T18:58:15.886Z,40.00
2018-06-30T19:00:44.986Z,40.30
2018-06-30T19:03:17.780Z,40.60
2018-06-30T19:05:47.241Z,41.10
2018-06-30T19:08:16.241Z,41.90
2018-06-30T19:10:45.189Z,42.30
2018-06-30T19:13:14.122Z,42.90
2018-06-30T19:15:43.037Z,43.50
2018-06-30T19:20:40.469Z,45.60
2018-06-30T19:23:09.406Z,46.30
2018-06-30T19:25:38.341Z,46.80
2018-06-30T19:28:07.361Z,47.30
2018-06-30T19:30:36.310Z,48.50
2018-06-30T19:33:05.346Z,49.60
2018-06-30T19:35:34.259Z,49.70
2018-06-30T19:38:03.173Z,50.10
2018-06-30T19:40:32.097Z,50.20
2018-06-30T19:43:01.057Z,50.00
2018-06-30T19:45:30.063Z,49.80
2018-06-30T19:47:58.992Z,50.40
2018-06-30T19:50:27.934Z,51.30
2018-06-30T19:52:56.934Z,51.70
2018-06-30T19:55:25.869Z,51.30
2018-06-30T19:57:54.797Z,51.80
2018-06-30T20:00:23.734Z,52.20
2018-06-30T20:02:52.644Z,53.10
2018-06-30T20:05:21.567Z,54.30
2018-06-30T20:07:53.808Z,55.00
2018-06-30T20:10:23.676Z,55.10
2018-06-30T20:12:52.737Z,55.50
2018-06-30T20:15:21.938Z,55.40
2018-06-30T20:17:50.854Z,55.40
2018-06-30T20:20:19.805Z,56.10
2018-06-30T20:22:48.801Z,55.90
2018-06-30T20:25:18.224Z,56.10
2018-06-30T20:27:47.162Z,56.10
2018-06-30T20:30:16.089Z,55.70
2018-06-30T20:32:45.078Z,55.40
2018-06-30T20:35:13.994Z,55.40
2018-06-30T20:37:42.939Z,55.70
2018-06-30T20:40:12.530Z,56.50
2018-06-30T20:42:41.812Z,57.10
2018-06-30T20:45:10.893Z,57.40
2018-06-30T20:47:40.122Z,58.30
2018-06-30T20:50:09.196Z,58.70
2018-06-30T20:52:38.749Z,58.60
2018-06-30T20:55:08.357Z,59.40
2018-06-30T20:57:37.600Z,59.10
2018-06-30T21:00:06.646Z,59.40
2018-06-30T21:02:35.565Z,59.60
2018-06-30T21:07:36.312Z,60.00
2018-06-30T21:10:05.934Z,60.40
2018-06-30T21:12:34.941Z,60.60
2018-06-30T21:17:32.532Z,60.70
2018-06-30T21:20:01.522Z,60.90
2018-06-30T21:22:30.476Z,60.90
2018-06-30T21:24:59.422Z,60.90
2018-06-30T21:27:29.317Z,61.40
2018-06-30T21:29:58.292Z,61.40
2018-06-30T21:32:27.249Z,61.40
2018-06-30T21:34:56.162Z,61.50
2018-06-30T21:37:26.602Z,61.50
2018-06-30T21:39:56.829Z,61.80
2018-06-30T21:42:25.862Z,61.80
2018-06-30T21:44:54.967Z,61.70
2018-06-30T21:47:23.974Z,61.60
2018-06-30T21:49:52.876Z,61.40
2018-06-30T21:52:21.785Z,61.10
2018-06-30T21:54:51.230Z,62.10
2018-06-30T21:57:20.185Z,61.50
2018-06-30T21:59:49.176Z,62.00
2018-06-30T22:02:18.069Z,62.50
2018-06-30T22:04:47.356Z,62.30
2018-06-30T22:07:17.140Z,62.10
2018-06-30T22:09:46.746Z,61.90
2018-06-30T22:12:16.420Z,61.90
2018-06-30T22:14:45.480Z,62.20
2018-06-30T22:17:14.576Z,61.80
2018-06-30T22:19:43.452Z,62.00
2018-06-30T22:22:12.348Z,62.50
2018-06-30T22:24:41.330Z,62.90
2018-06-30T22:27:10.673Z,63.00
2018-06-30T22:29:40.017Z,63.60
2018-06-30T22:32:10.128Z,63.70
2018-06-30T22:34:39.310Z,63.90
2018-06-30T22:37:08.250Z,64.20
2018-06-30T22:39:47.982Z,64.20
2018-06-30T22:42:16.917Z,64.60
2018-06-30T22:44:46.158Z,64.40
2018-06-30T22:47:15.236Z,64.40
2018-06-30T22:49:44.319Z,64.60
2018-06-30T22:52:13.285Z,64.50
2018-06-30T22:54:42.261Z,65.00
2018-06-30T22:57:12.437Z,64.90
2018-06-30T22:59:44.974Z,64.20
2018-06-30T23:02:13.979Z,64.00
2018-06-30T23:04:42.917Z,64.20
2018-06-30T23:07:11.857Z,63.90
2018-06-30T23:09:40.757Z,64.30
2018-06-30T23:12:09.694Z,64.00
2018-06-30T23:14:38.601Z,64.30
2018-06-30T23:17:07.962Z,64.80
2018-06-30T23:19:36.914Z,65.00
2018-06-30T23:24:38.506Z,64.80
2018-06-30T23:27:07.478Z,65.00
2018-06-30T23:29:36.373Z,65.10
2018-06-30T23:32:05.381Z,64.80
2018-06-30T23:34:34.289Z,65.00
2018-06-30T23:37:03.889Z,65.30
2018-06-30T23:39:32.813Z,65.50
2018-06-30T23:42:01.755Z,65.30
2018-06-30T23:44:33.008Z,65.20
2018-06-30T23:47:01.993Z,65.40
2018-06-30T23:49:31.976Z,65.50
2018-06-30T23:52:00.913Z,65.70
2018-06-30T23:54:29.936Z,65.80
2018-06-30T23:56:58.881Z,65.70
2018-06-30T23:59:27.801Z,65.60
